Fairbury, Illinois
Current Conditions -  °F | °C
As of 1:55 PM on Sunday 21 Dec 2014 (Local Time) from KPNT Reporting Station
Overcast Overcast  
Wind Chill: 32°   Ceiling: 3100
Heat Index: 39°   Visibility: 10mi
Dew Point: 33°   Wind: 13mph
Humidity: 79%   Direction: 170°S
Pressure: 30.1"   Gusts: NA
Location:  40.75°N, 88.51°W
Report Text: KPNT 211955Z AUTO 17011KT 10SM OVC031 04/01 A3010 RMK AO2 T00410008
Loading
Personal Weather Stations






























Interactive Weather Map New forecast layout! Learn more

10-Day Weather Forecast

Advertisements
Track Severe Weather on mobile